createdAt,value
2022-09-10T00:01:22.353Z,15.02
2022-09-10T00:04:17.335Z,15.02
2022-09-10T00:07:04.343Z,15.02
2022-09-10T00:09:37.416Z,15.01
2022-09-10T00:12:24.359Z,15.01
2022-09-10T00:14:57.716Z,14.99
2022-09-10T00:17:45.340Z,14.98
2022-09-10T00:20:25.355Z,14.94
2022-09-10T00:23:12.333Z,14.91
2022-09-10T00:25:52.372Z,14.89
2022-09-10T00:28:39.470Z,14.86
2022-09-10T00:31:20.413Z,14.87
2022-09-10T00:34:08.353Z,14.88
2022-09-10T00:36:53.341Z,14.88
2022-09-10T00:39:47.390Z,14.87
2022-09-10T00:42:41.340Z,14.88
2022-09-10T00:45:30.381Z,14.90
2022-09-10T00:48:18.361Z,14.90
2022-09-10T00:51:16.373Z,14.91
2022-09-10T00:54:11.367Z,14.90
2022-09-10T00:57:01.357Z,14.88
2022-09-10T00:59:34.432Z,14.88
2022-09-10T01:02:21.390Z,14.86
2022-09-10T01:04:55.464Z,14.83
2022-09-10T01:07:42.371Z,14.83
2022-09-10T01:10:30.452Z,14.85
2022-09-10T01:13:39.383Z,14.88
2022-09-10T01:16:37.473Z,14.85
2022-09-10T01:19:36.373Z,14.82
2022-09-10T01:23:04.384Z,14.83
2022-09-10T01:25:59.458Z,14.85
2022-09-10T01:28:56.388Z,14.85
2022-09-10T01:32:01.401Z,14.87
2022-09-10T01:35:18.372Z,14.88
2022-09-10T01:38:11.404Z,14.89
2022-09-10T01:40:46.456Z,14.88
2022-09-10T01:43:33.387Z,14.90
2022-09-10T01:46:25.393Z,14.90
2022-09-10T01:49:43.398Z,14.93
2022-09-10T01:52:42.399Z,14.92
2022-09-10T01:55:41.926Z,14.92
2022-09-10T01:58:43.427Z,14.93
2022-09-10T02:01:39.465Z,14.93
2022-09-10T02:04:28.407Z,14.93
2022-09-10T02:07:10.399Z,14.95
2022-09-10T02:10:05.410Z,14.92
2022-09-10T02:12:59.402Z,14.90
2022-09-10T02:15:54.423Z,14.90
2022-09-10T02:18:50.413Z,14.88
2022-09-10T02:21:38.408Z,14.87
2022-09-10T02:24:22.405Z,14.84
2022-09-10T02:27:09.410Z,14.82
2022-09-10T02:29:42.531Z,14.84
2022-09-10T02:32:29.425Z,14.86
2022-09-10T02:35:09.421Z,14.86
2022-09-10T02:38:03.421Z,14.86
2022-09-10T02:40:50.418Z,14.87
2022-09-10T02:43:23.599Z,14.86
2022-09-10T02:46:14.399Z,14.86
2022-09-10T02:48:47.510Z,14.86
2022-09-10T02:51:34.433Z,14.83
2022-09-10T02:54:07.485Z,14.83
2022-09-10T02:56:56.439Z,14.81
2022-09-10T02:59:33.003Z,14.81
2022-09-10T03:02:19.541Z,14.83
2022-09-10T03:05:00.421Z,14.83
2022-09-10T03:07:47.450Z,14.83
2022-09-10T03:10:20.508Z,14.86
2022-09-10T03:13:07.421Z,14.87
2022-09-10T03:15:40.509Z,14.87
2022-09-10T03:18:29.439Z,14.87
2022-09-10T03:21:02.519Z,14.83
2022-09-10T03:23:51.430Z,14.83
2022-09-10T03:26:33.428Z,14.83
2022-09-10T03:29:22.445Z,14.82
2022-09-10T03:31:55.504Z,14.85
2022-09-10T03:34:42.468Z,14.88
2022-09-10T03:37:15.803Z,14.89
2022-09-10T03:40:02.504Z,14.92
2022-09-10T03:42:35.531Z,14.92
2022-09-10T03:45:22.463Z,14.93
2022-09-10T03:47:55.526Z,14.94
2022-09-10T03:50:42.445Z,14.94
2022-09-10T03:53:22.463Z,14.94
2022-09-10T03:56:19.448Z,14.94
2022-09-10T03:59:06.460Z,14.92
2022-09-10T04:01:42.201Z,14.91
2022-09-10T04:04:44.453Z,14.89
2022-09-10T04:07:31.469Z,14.89
2022-09-10T04:10:04.535Z,14.90
2022-09-10T04:12:52.476Z,14.92
2022-09-10T04:15:26.577Z,14.92
2022-09-10T04:18:14.463Z,14.93
2022-09-10T04:20:48.260Z,14.94
2022-09-10T04:23:34.471Z,14.95
2022-09-10T04:26:07.564Z,14.96
2022-09-10T04:28:54.481Z,14.95
2022-09-10T04:31:27.569Z,14.97
2022-09-10T04:34:14.487Z,14.97
2022-09-10T04:36:54.499Z,14.98
2022-09-10T04:39:50.510Z,14.98
2022-09-10T04:42:38.486Z,14.95
2022-09-10T04:45:20.504Z,14.95
2022-09-10T04:48:07.497Z,14.93
2022-09-10T04:51:14.361Z,14.92
2022-09-10T04:53:54.496Z,14.90
2022-09-10T04:56:27.624Z,14.90
2022-09-10T04:59:14.517Z,14.91
2022-09-10T05:01:50.346Z,14.89
2022-09-10T05:04:40.512Z,14.90
2022-09-10T05:07:20.485Z,14.89
2022-09-10T05:10:16.497Z,14.90
2022-09-10T05:13:10.512Z,14.88
2022-09-10T05:16:05.575Z,14.88
2022-09-10T05:18:59.516Z,14.89
2022-09-10T05:21:53.504Z,14.90
2022-09-10T05:24:40.514Z,14.90
2022-09-10T05:27:13.567Z,14.90
2022-09-10T05:30:00.489Z,14.90
2022-09-10T05:32:33.625Z,14.90
2022-09-10T05:35:20.514Z,14.90
2022-09-10T05:37:53.650Z,14.91
2022-09-10T05:40:41.509Z,14.91
2022-09-10T05:43:17.630Z,14.92
2022-09-10T05:46:04.639Z,14.92
2022-09-10T05:48:41.392Z,14.93
2022-09-10T05:51:28.584Z,14.94
2022-09-10T05:54:01.631Z,14.94
2022-09-10T05:56:48.544Z,14.93
2022-09-10T05:59:28.544Z,14.93
2022-09-10T06:02:29.609Z,14.94
2022-09-10T06:05:16.538Z,14.92
2022-09-10T06:07:49.653Z,14.93
2022-09-10T06:10:43.540Z,14.93
2022-09-10T06:13:31.530Z,14.94
2022-09-10T06:16:05.210Z,14.94
2022-09-10T06:18:51.548Z,14.96
2022-09-10T06:21:32.528Z,14.96
2022-09-10T06:24:30.523Z,14.97
2022-09-10T06:27:24.549Z,14.97
2022-09-10T06:30:11.548Z,14.97
2022-09-10T06:32:44.620Z,14.97
2022-09-10T06:35:33.530Z,14.98
2022-09-10T06:38:13.553Z,14.99
2022-09-10T06:41:01.538Z,15.01
2022-09-10T06:43:46.556Z,15.02
2022-09-10T06:47:19.666Z,15.03
2022-09-10T06:49:47.568Z,15.02
2022-09-10T06:52:27.533Z,15.02
2022-09-10T06:55:21.565Z,15.02
2022-09-10T06:58:08.545Z,15.02
2022-09-10T07:00:49.583Z,15.02
2022-09-10T07:03:36.571Z,15.01
2022-09-10T07:06:21.564Z,15.01
2022-09-10T07:09:16.573Z,15.00
2022-09-10T07:12:11.558Z,15.00
2022-09-10T07:15:05.575Z,15.00
2022-09-10T07:17:52.556Z,14.99
2022-09-10T07:20:36.555Z,14.98
2022-09-10T07:23:32.566Z,14.98
2022-09-10T07:26:28.558Z,14.99
2022-09-10T07:29:16.972Z,14.98
2022-09-10T07:31:57.564Z,14.98
2022-09-10T07:34:44.596Z,15.00
2022-09-10T07:37:19.632Z,14.98
2022-09-10T07:40:06.592Z,15.00
2022-09-10T07:42:48.579Z,15.01
2022-09-10T07:46:04.130Z,15.01
2022-09-10T07:48:51.634Z,15.01
2022-09-10T07:51:24.829Z,15.01
2022-09-10T07:54:12.813Z,15.02
2022-09-10T07:56:45.659Z,15.03
2022-09-10T07:59:32.578Z,15.03
2022-09-10T08:02:12.659Z,15.03
2022-09-10T08:05:06.579Z,15.04
2022-09-10T08:07:58.598Z,15.04
2022-09-10T08:10:31.662Z,15.05
2022-09-10T08:13:19.631Z,15.03
2022-09-10T08:15:52.721Z,15.06
2022-09-10T08:18:41.160Z,15.05
2022-09-10T08:21:14.701Z,15.06
2022-09-10T08:24:04.588Z,15.08
2022-09-10T08:26:39.558Z,15.09
2022-09-10T08:29:26.606Z,15.11
2022-09-10T08:31:59.726Z,15.14
2022-09-10T08:34:47.634Z,15.16
2022-09-10T08:37:27.637Z,15.17
2022-09-10T08:40:18.682Z,15.19
2022-09-10T08:42:58.532Z,15.22
2022-09-10T08:45:46.696Z,15.23
2022-09-10T08:48:32.622Z,15.24
2022-09-10T08:51:33.638Z,15.25
2022-09-10T08:54:41.640Z,15.25
2022-09-10T08:57:53.637Z,15.24
2022-09-10T09:00:38.679Z,15.25
2022-09-10T09:03:48.671Z,15.24
2022-09-10T09:06:54.654Z,15.22
2022-09-10T09:09:48.666Z,15.21
2022-09-10T09:12:52.668Z,15.19
2022-09-10T09:16:04.693Z,15.16
2022-09-10T09:19:03.658Z,15.15
2022-09-10T09:21:55.643Z,15.15
2022-09-10T09:25:19.639Z,15.15
2022-09-10T09:27:56.448Z,15.15
2022-09-10T09:30:55.656Z,15.17
2022-09-10T09:33:30.221Z,15.19
2022-09-10T09:36:24.669Z,15.19
2022-09-10T09:39:04.655Z,15.23
2022-09-10T09:42:12.660Z,15.22
2022-09-10T09:45:16.657Z,15.22
2022-09-10T09:48:03.636Z,15.25
2022-09-10T09:50:38.911Z,15.25
2022-09-10T09:53:33.643Z,15.26
2022-09-10T09:56:08.749Z,15.26
2022-09-10T09:59:01.399Z,15.27
2022-09-10T10:01:46.901Z,15.29
2022-09-10T10:04:43.774Z,15.30
2022-09-10T10:07:17.730Z,15.31
2022-09-10T10:10:13.649Z,15.29
2022-09-10T10:13:08.656Z,15.28
2022-09-10T10:15:55.704Z,15.25
2022-09-10T10:18:28.859Z,15.22
2022-09-10T10:21:23.650Z,15.22
2022-09-10T10:23:59.298Z,15.21
2022-09-10T10:26:46.688Z,15.22
2022-09-10T10:29:27.781Z,15.21
2022-09-10T10:32:22.713Z,15.21
2022-09-10T10:35:25.643Z,15.23
2022-09-10T10:38:39.740Z,15.23
2022-09-10T10:41:45.372Z,15.22
2022-09-10T10:44:47.642Z,15.22
2022-09-10T10:47:57.665Z,15.24
2022-09-10T10:51:13.553Z,15.27
2022-09-10T10:53:55.641Z,15.30
2022-09-10T10:56:47.735Z,15.34
2022-09-10T10:59:32.818Z,15.38
2022-09-10T11:02:30.747Z,15.41
2022-09-10T11:05:07.781Z,15.44
2022-09-10T11:07:55.675Z,15.46
2022-09-10T11:10:45.776Z,15.46
2022-09-10T11:14:02.722Z,15.45
2022-09-10T11:16:49.114Z,15.45
2022-09-10T11:19:44.717Z,15.47
2022-09-10T11:22:26.789Z,15.48
2022-09-10T11:25:34.725Z,15.51
2022-09-10T11:28:27.554Z,15.53
2022-09-10T11:31:50.702Z,15.55
2022-09-10T11:34:43.558Z,15.53
2022-09-10T11:37:50.097Z,15.53
2022-09-10T11:40:50.722Z,15.49
2022-09-10T11:43:49.731Z,15.47
2022-09-10T11:46:39.778Z,15.45
2022-09-10T11:49:27.855Z,15.43
2022-09-10T11:52:15.738Z,15.41
2022-09-10T11:54:49.821Z,15.41
2022-09-10T11:57:40.768Z,15.38
2022-09-10T12:00:27.018Z,15.37
2022-09-10T12:03:41.914Z,15.36
2022-09-10T12:06:27.860Z,15.35
2022-09-10T12:09:31.766Z,15.35
2022-09-10T12:12:19.535Z,15.34
2022-09-10T12:15:15.784Z,15.33
2022-09-10T12:18:18.891Z,15.33
2022-09-10T12:21:15.733Z,15.33
2022-09-10T12:23:57.787Z,15.33
2022-09-10T12:26:58.780Z,15.32
2022-09-10T12:29:47.732Z,15.32
2022-09-10T12:32:27.133Z,15.33
2022-09-10T12:35:37.782Z,15.32
2022-09-10T12:38:49.985Z,15.33
2022-09-10T12:41:36.778Z,15.33
2022-09-10T12:44:34.421Z,15.33
2022-09-10T12:47:20.759Z,15.30
2022-09-10T12:49:55.836Z,15.30
2022-09-10T12:52:51.737Z,15.30
2022-09-10T12:56:19.781Z,15.29
2022-09-10T12:59:53.776Z,15.30
2022-09-10T13:02:44.760Z,15.28
2022-09-10T13:05:55.829Z,15.24
2022-09-10T13:08:49.780Z,15.23
2022-09-10T13:11:37.787Z,15.22
2022-09-10T13:14:38.790Z,15.20
2022-09-10T13:18:06.768Z,15.19
2022-09-10T13:20:40.870Z,15.15
2022-09-10T13:23:29.781Z,15.11
2022-09-10T13:26:44.799Z,15.06
2022-09-10T13:29:46.784Z,15.02
2022-09-10T13:32:45.787Z,15.00
2022-09-10T13:35:31.780Z,14.97
2022-09-10T13:38:44.764Z,14.97
2022-09-10T13:42:09.782Z,14.95
2022-09-10T13:45:22.781Z,14.92
2022-09-10T13:48:26.764Z,14.89
2022-09-10T13:51:46.778Z,14.90
2022-09-10T13:54:37.785Z,14.90
2022-09-10T13:57:24.835Z,14.94
2022-09-10T14:00:15.779Z,14.98
2022-09-10T14:02:54.999Z,14.99
2022-09-10T14:05:56.772Z,15.02
2022-09-10T14:08:30.497Z,15.03
2022-09-10T14:11:27.847Z,15.04
2022-09-10T14:14:30.777Z,15.06
2022-09-10T14:17:13.837Z,15.09
2022-09-10T14:20:09.913Z,15.10
2022-09-10T14:22:51.782Z,15.11
2022-09-10T14:25:51.839Z,15.11
2022-09-10T14:28:38.796Z,15.12
2022-09-10T14:31:27.992Z,15.11
2022-09-10T14:34:38.778Z,15.11
2022-09-10T14:37:48.790Z,15.10
2022-09-10T14:40:53.846Z,15.07
2022-09-10T14:43:47.838Z,15.05
2022-09-10T14:46:54.195Z,15.05
2022-09-10T14:49:44.794Z,15.02
2022-09-10T14:52:19.087Z,15.01
2022-09-10T14:55:07.855Z,14.99
2022-09-10T14:57:41.337Z,14.97
2022-09-10T15:00:32.793Z,14.97
2022-09-10T15:03:05.853Z,14.94
2022-09-10T15:05:52.805Z,14.91
2022-09-10T15:08:32.801Z,14.91
2022-09-10T15:11:33.837Z,14.89
2022-09-10T15:14:22.801Z,14.86
2022-09-10T15:16:56.907Z,14.87
2022-09-10T15:19:43.820Z,14.85
2022-09-10T15:22:26.888Z,14.81
2022-09-10T15:25:13.824Z,14.80
2022-09-10T15:27:46.890Z,14.79
2022-09-10T15:30:33.825Z,14.76
2022-09-10T15:33:09.897Z,14.72
2022-09-10T15:35:56.824Z,14.74
2022-09-10T15:38:30.896Z,14.74
2022-09-10T15:41:19.818Z,14.73
2022-09-10T15:43:53.893Z,14.75
2022-09-10T15:46:40.880Z,14.73
2022-09-10T15:49:20.853Z,14.75
2022-09-10T15:52:14.848Z,14.75
2022-09-10T15:55:08.817Z,14.76
2022-09-10T15:57:56.886Z,14.77
2022-09-10T16:00:29.903Z,14.77
2022-09-10T16:03:17.839Z,14.78
2022-09-10T16:05:57.829Z,14.78
2022-09-10T16:08:44.841Z,14.79
2022-09-10T16:11:18.231Z,14.78
2022-09-10T16:14:05.840Z,14.79
2022-09-10T16:16:47.850Z,14.78
2022-09-10T16:19:41.839Z,14.78
2022-09-10T16:22:28.851Z,14.77
2022-09-10T16:25:08.831Z,14.76
2022-09-10T16:27:55.825Z,14.76
2022-09-10T16:30:29.378Z,14.75
2022-09-10T16:33:15.834Z,14.74
2022-09-10T16:35:55.862Z,14.75
2022-09-10T16:38:49.863Z,14.73
2022-09-10T16:41:37.870Z,14.73
2022-09-10T16:44:11.910Z,14.72
2022-09-10T16:46:58.835Z,14.70
2022-09-10T16:49:38.851Z,14.68
2022-09-10T16:52:32.853Z,14.66
2022-09-10T16:55:26.950Z,14.61
2022-09-10T16:58:20.863Z,14.58
2022-09-10T17:01:15.939Z,14.53
2022-09-10T17:04:18.125Z,14.50
2022-09-10T17:07:12.872Z,14.48
2022-09-10T17:10:06.912Z,14.46
2022-09-10T17:13:00.867Z,14.45
2022-09-10T17:15:49.910Z,14.41
2022-09-10T17:18:22.962Z,14.39
2022-09-10T17:21:09.887Z,14.35
2022-09-10T17:23:50.887Z,14.31
2022-09-10T17:26:45.904Z,14.29
2022-09-10T17:29:32.899Z,14.24
2022-09-10T17:32:05.932Z,14.21
2022-09-10T17:34:53.902Z,14.18
2022-09-10T17:37:33.887Z,14.14
2022-09-10T17:40:20.934Z,14.10
2022-09-10T17:42:55.959Z,14.07
2022-09-10T17:45:42.893Z,14.05
2022-09-10T17:48:15.970Z,14.00
2022-09-10T17:51:02.901Z,13.96
2022-09-10T17:53:36.979Z,13.90
2022-09-10T17:56:25.885Z,13.86
2022-09-10T17:59:16.918Z,13.84
2022-09-10T18:02:04.966Z,13.83
2022-09-10T18:04:45.885Z,13.81
2022-09-10T18:07:32.905Z,13.80
2022-09-10T18:10:05.987Z,13.78
2022-09-10T18:12:56.049Z,13.78
2022-09-10T18:15:33.101Z,13.77
2022-09-10T18:18:19.895Z,13.78
2022-09-10T18:20:53.121Z,13.78
2022-09-10T18:23:39.942Z,13.80
2022-09-10T18:26:24.005Z,13.80
2022-09-10T18:29:17.907Z,13.79
2022-09-10T18:31:57.077Z,13.77
2022-09-10T18:34:43.917Z,13.74
2022-09-10T18:37:23.927Z,13.75
2022-09-10T18:40:19.993Z,13.73
2022-09-10T18:43:06.908Z,13.70
2022-09-10T18:45:40.035Z,13.67
2022-09-10T18:48:26.919Z,13.63
2022-09-10T18:50:59.999Z,13.59
2022-09-10T18:53:47.945Z,13.54
2022-09-10T18:56:24.007Z,13.51
2022-09-10T18:59:15.923Z,13.50
2022-09-10T19:01:57.047Z,13.49
2022-09-10T19:05:07.389Z,13.46
2022-09-10T19:07:43.945Z,13.44
2022-09-10T19:10:37.912Z,13.41
2022-09-10T19:13:31.924Z,13.41
2022-09-10T19:16:25.911Z,13.36
2022-09-10T19:19:12.923Z,13.36
2022-09-10T19:21:46.025Z,13.36
2022-09-10T19:24:53.357Z,13.36
2022-09-10T19:27:32.930Z,13.34
2022-09-10T19:30:26.944Z,13.35
2022-09-10T19:33:21.947Z,13.40
2022-09-10T19:36:15.933Z,13.41
2022-09-10T19:38:49.241Z,13.40
2022-09-10T19:41:35.947Z,13.38
2022-09-10T19:44:10.031Z,13.40
2022-09-10T19:46:56.955Z,13.42
2022-09-10T19:49:29.996Z,13.44
2022-09-10T19:52:17.977Z,13.45
2022-09-10T19:54:57.940Z,13.47
2022-09-10T19:57:51.953Z,13.46
2022-09-10T20:00:46.847Z,13.43
2022-09-10T20:03:27.977Z,13.43
2022-09-10T20:06:21.957Z,13.42
2022-09-10T20:09:16.949Z,13.45
2022-09-10T20:12:10.981Z,13.44
2022-09-10T20:14:57.958Z,13.44
2022-09-10T20:17:31.079Z,13.42
2022-09-10T20:20:17.992Z,13.39
2022-09-10T20:22:51.608Z,13.38
2022-09-10T20:25:37.980Z,13.36
2022-09-10T20:28:13.252Z,13.38
2022-09-10T20:30:59.987Z,13.40
2022-09-10T20:33:33.037Z,13.39
2022-09-10T20:36:24.001Z,13.36
2022-09-10T20:38:58.044Z,13.36
2022-09-10T20:41:46.948Z,13.37
2022-09-10T20:44:23.139Z,13.34
2022-09-10T20:47:09.962Z,13.30
2022-09-10T20:49:50.999Z,13.29
2022-09-10T20:52:44.972Z,13.26
2022-09-10T20:55:38.995Z,13.25
2022-09-10T20:58:25.978Z,13.26
2022-09-10T21:01:05.983Z,13.25
2022-09-10T21:04:01.982Z,13.23
2022-09-10T21:06:55.983Z,13.23
2022-09-10T21:09:43.017Z,13.24
2022-09-10T21:12:16.149Z,13.26
2022-09-10T21:15:03.006Z,13.26
2022-09-10T21:17:36.077Z,13.25
2022-09-10T21:20:22.990Z,13.24
2022-09-10T21:22:56.525Z,13.22
2022-09-10T21:25:42.984Z,13.22
2022-09-10T21:28:16.082Z,13.20
2022-09-10T21:31:09.031Z,13.21
2022-09-10T21:33:43.373Z,13.21
2022-09-10T21:36:30.012Z,13.20
2022-09-10T21:39:08.173Z,13.21
2022-09-10T21:41:57.004Z,13.23
2022-09-10T21:44:39.005Z,13.24
2022-09-10T21:47:26.042Z,13.26
2022-09-10T21:50:06.005Z,13.26
2022-09-10T21:53:00.011Z,13.27
2022-09-10T21:55:47.019Z,13.28
2022-09-10T21:58:20.072Z,13.29
2022-09-10T22:01:07.027Z,13.27
2022-09-10T22:03:40.126Z,13.26
2022-09-10T22:06:29.997Z,13.24
2022-09-10T22:09:09.104Z,13.24
2022-09-10T22:12:04.015Z,13.24
2022-09-10T22:14:51.031Z,13.21
2022-09-10T22:17:24.579Z,13.22
2022-09-10T22:20:12.060Z,13.23
2022-09-10T22:22:45.105Z,13.25
2022-09-10T22:25:32.019Z,13.25
2022-09-10T22:28:05.120Z,13.22
2022-09-10T22:30:52.044Z,13.24
2022-09-10T22:33:32.026Z,13.24
2022-09-10T22:36:23.039Z,13.25
2022-09-10T22:39:08.036Z,13.24
2022-09-10T22:41:56.023Z,13.23
2022-09-10T22:44:29.088Z,13.22
2022-09-10T22:47:16.046Z,13.18
2022-09-10T22:49:49.094Z,13.18
2022-09-10T22:52:39.045Z,13.17
2022-09-10T22:55:13.543Z,13.15
2022-09-10T22:58:00.039Z,13.14
2022-09-10T23:00:33.132Z,13.14
2022-09-10T23:03:20.085Z,13.13
2022-09-10T23:06:00.043Z,13.12
2022-09-10T23:08:49.042Z,13.13
2022-09-10T23:11:26.337Z,13.13
2022-09-10T23:14:19.086Z,13.11
2022-09-10T23:17:01.060Z,13.08
2022-09-10T23:19:55.052Z,13.04
2022-09-10T23:22:42.067Z,13.01
2022-09-10T23:25:15.163Z,12.99
2022-09-10T23:28:06.696Z,12.96
2022-09-10T23:30:40.163Z,12.93
2022-09-10T23:33:27.071Z,12.90
2022-09-10T23:36:00.175Z,12.87
2022-09-10T23:38:49.076Z,12.85
2022-09-10T23:41:29.063Z,12.83
2022-09-10T23:44:23.086Z,12.83
2022-09-10T23:47:10.060Z,12.83
2022-09-10T23:49:50.044Z,12.82
2022-09-10T23:52:44.067Z,12.85
2022-09-10T23:55:31.065Z,12.86
2022-09-10T23:58:04.147Z,12.87
